To NAV CANADA Home Page Login to a new session Search on AWWS site Disclaimer Vers la page française équivalente Tips FAQ What's new on the site To the Forecasts and Observations / NOTAM section To "File a Flight Plan" website Publications and other links Update of the User's profile FIC Telephone Numbers My Weather Data Folder Route Weather Data Regional Weather Data Local Weather Data To the Forecasts and Observations / NOTAM section
Request Generated 10/21/2018 at 05:55:40 UTC . Weather information available at that time is displayed.


Save this request

METAR/TAF

WINNIPEG/JAMES ARMSTRONG RICHARDSON INTL/MB    

METAR CYWG 210500Z 18012KT 15SM BKN110 01/M06 A3011 RMK AC7 SLP212=
METAR CYWG 210400Z 18013KT 15SM BKN120 00/M07 A3014 RMK AC7 SLP219=
METAR CYWG 210300Z 16010KT 15SM BKN150 00/M06 A3017 RMK AC6 PRESFR SLP230=

TAF CYWG 210538Z 2106/2206 19015KT P6SM BKN120
FM211000 20010KT P6SM SCT120 SCT200
BECMG 2113/2115 26012KT
FM211800 28012KT P6SM SKC
RMK NXT FCST BY 211200Z=

PORTAGE LA PRAIRIE/SOUTHPORT/MB    

CYPG - METAR not available

*** REMARK        : Forecast period has ended; this was the last TAF issued
*** REMARQUE : La période de prévision est échue; ceci était le dernier TAF qui a été émis
TAF AMD CYPG 192212Z 1918/2006 FCST CNCLD DUE END OF FLYING PROGRAM
RMK NXT FCST WILL BE ISSUED AT 221215Z=

BRANDON MUNICIPALITY/MB    

METAR CYBR 210500Z 14007KT 15SM SKC M01/M08 A2997 RMK PRESFR SLP174=
METAR CYBR 210400Z 15008KT 15SM BKN110 00/M07 A3002 RMK AC7 PRESFR SLP192=
METAR CYBR 210300Z 17005KT 15SM BKN110 01/M07 A3007 RMK AC7 SLP210=

TAF CYBR 210538Z 2106/2118 15007KT P6SM SKC
BECMG 2108/2110 30010KT
FM211200 31015KT P6SM SKC
RMK NXT FCST BY 211200Z=

KENORA/ON    

METAR CYQK 210500Z 19005KT 20SM SCT130 BKN170 BKN210 M02/M06 A3014 RMK AC4AC1CI2 SLP231=
METAR CYQK 210400Z 17003KT 150V220 20SM SCT130 BKN200 M02/M06 A3017 RMK AC4CI2 PRESFR SLP243=
METAR CYQK 210300Z 25003KT 20SM SCT170 BKN220 M02/M06 A3019 RMK AC3CI3 SLP249=

TAF CYQK 210138Z 2102/2114 VRB03KT P6SM BKN220
FM210400 24007KT P6SM BKN170
BECMG 2106/2108 22010G20KT
BECMG 2111/2113 21015G25KT
RMK NXT FCST BY 210800Z=

DRYDEN REGIONAL/ON    (show WxCam)

METAR CYHD 210500Z AUTO 19006KT 9SM OVC130 M02/M07 A3015 RMK SLP237=
METAR CYHD 210400Z AUTO 22004KT 9SM SCT150 BKN180 OVC200 M02/M08 A3019 RMK SLP252=
METAR CYHD 210300Z AUTO 23004KT 9SM FEW140 BKN180 BKN220 OVC240 M02/M08 A3019 RMK SLP251=

TAF CYHD 210138Z 2102/2114 VRB03KT P6SM BKN040
FM210400 25007KT P6SM SCT040 BKN200
FM211100 19010G20KT P6SM BKN100
RMK FCST BASED ON AUTO OBS. NXT FCST BY 210800Z=

THUNDER BAY/ON    (show WxCam)

METAR CYQT 210500Z 30006KT 15SM OVC038 00/M07 A3023 RMK SC8 SLP249=
METAR CYQT 210400Z 31004KT 15SM OVC036 00/M07 A3022 RMK SC8 SLP248=
METAR CYQT 210300Z 31005KT 15SM OVC036 00/M07 A3023 RMK SC8 SLP249=

TAF CYQT 210138Z 2102/2114 33007KT P6SM BKN040
FM210500 27007KT P6SM SCT050 TEMPO 2105/2108 BKN050
FM211100 20005KT P6SM SCT150
FM211300 25010G20KT P6SM BKN130
RMK NXT FCST BY 210800Z=


Your time UTC time
Weather data provided by Environment Canada and NAV CANADA